createdAt,value
2022-10-13T00:01:02.201Z,5.30
2022-10-13T00:03:43.164Z,5.38
2022-10-13T00:06:27.152Z,5.40
2022-10-13T00:09:04.184Z,5.40
2022-10-13T00:11:40.175Z,5.46
2022-10-13T00:14:17.192Z,5.50
2022-10-13T00:16:54.165Z,5.50
2022-10-13T00:19:32.174Z,5.50
2022-10-13T00:22:09.186Z,5.50
2022-10-13T00:24:45.202Z,5.50
2022-10-13T00:27:25.227Z,5.50
2022-10-13T00:30:01.149Z,5.60
2022-10-13T00:32:37.177Z,5.60
2022-10-13T00:35:15.158Z,5.60
2022-10-13T00:37:52.166Z,5.60
2022-10-13T00:40:29.169Z,5.60
2022-10-13T00:43:06.158Z,5.60
2022-10-13T00:45:43.163Z,5.60
2022-10-13T00:48:19.163Z,5.60
2022-10-13T00:58:55.995Z,5.60
2022-10-13T01:01:30.629Z,5.60
2022-10-13T01:04:04.438Z,5.60
2022-10-13T01:06:38.903Z,5.60
2022-10-13T01:09:17.131Z,5.60
2022-10-13T01:12:11.139Z,5.60
2022-10-13T01:14:54.471Z,5.58
2022-10-13T01:17:38.935Z,5.60
2022-10-13T01:20:47.407Z,5.60
2022-10-13T01:24:14.607Z,5.60
2022-10-13T01:27:40.711Z,5.50
2022-10-13T01:30:24.417Z,5.50
2022-10-13T01:33:25.223Z,5.50
2022-10-13T01:36:18.998Z,5.50
2022-10-13T01:39:02.260Z,5.50
2022-10-13T01:41:41.635Z,5.50
2022-10-13T01:44:23.370Z,5.50
2022-10-13T01:47:00.323Z,5.50
2022-10-13T01:49:37.335Z,5.50
2022-10-13T01:52:16.960Z,5.50
2022-10-13T01:54:54.387Z,5.50
2022-10-13T01:57:42.418Z,5.50
2022-10-13T02:00:22.812Z,5.44
2022-10-13T02:03:10.217Z,5.44
2022-10-13T02:05:57.598Z,5.46
2022-10-13T02:08:41.181Z,5.40
2022-10-13T02:11:20.820Z,5.40
2022-10-13T02:14:03.281Z,5.40
2022-10-13T02:16:42.882Z,5.40
2022-10-13T02:19:20.278Z,5.40
2022-10-13T02:21:54.973Z,5.44
2022-10-13T02:24:28.796Z,5.40
2022-10-13T02:27:03.298Z,5.40
2022-10-13T02:29:49.441Z,5.40
2022-10-13T02:32:24.134Z,5.40
2022-10-13T02:34:58.251Z,5.40
2022-10-13T02:37:31.884Z,5.40
2022-10-13T02:40:06.765Z,5.40
2022-10-13T02:42:40.449Z,5.40
2022-10-13T02:45:15.683Z,5.40
2022-10-13T02:47:49.601Z,5.40
2022-10-13T02:50:23.227Z,5.40
2022-10-13T02:52:57.321Z,5.40
2022-10-13T02:55:31.223Z,5.40
2022-10-13T02:58:05.011Z,5.40
2022-10-13T03:00:40.400Z,5.40
2022-10-13T03:03:14.765Z,5.38
2022-10-13T03:05:48.825Z,5.38
2022-10-13T03:08:23.136Z,5.30
2022-10-13T03:10:57.962Z,5.30
2022-10-13T03:13:32.420Z,5.30
2022-10-13T03:16:13.323Z,5.30
2022-10-13T03:18:47.033Z,5.30
2022-10-13T03:21:20.931Z,5.30
2022-10-13T03:23:55.088Z,5.30
2022-10-13T03:26:29.683Z,5.30
2022-10-13T03:29:03.829Z,5.30
2022-10-13T03:31:37.606Z,5.30
2022-10-13T03:34:11.861Z,5.30
2022-10-13T03:36:46.071Z,5.30
2022-10-13T03:39:20.071Z,5.30
2022-10-13T03:41:53.749Z,5.24
2022-10-13T03:44:27.590Z,5.20
2022-10-13T03:47:02.476Z,5.20
2022-10-13T03:49:36.239Z,5.20
2022-10-13T03:52:10.181Z,5.20
2022-10-13T03:54:43.823Z,5.20
2022-10-13T03:57:17.655Z,5.20
2022-10-13T03:59:51.510Z,5.20
2022-10-13T04:02:25.328Z,5.20
2022-10-13T04:05:00.267Z,5.18
2022-10-13T04:07:33.909Z,5.20
2022-10-13T04:10:12.788Z,5.20
2022-10-13T04:12:49.668Z,5.20
2022-10-13T04:15:23.278Z,5.20
2022-10-13T04:17:57.093Z,5.10
2022-10-13T04:20:30.704Z,5.10
2022-10-13T04:23:04.536Z,5.10
2022-10-13T04:25:41.251Z,5.10
2022-10-13T04:28:16.014Z,5.10
2022-10-13T04:30:50.004Z,5.10
2022-10-13T04:33:23.838Z,5.10
2022-10-13T04:35:57.637Z,5.00
2022-10-13T04:38:33.172Z,4.92
2022-10-13T04:41:09.970Z,4.80
2022-10-13T04:43:44.266Z,4.70
2022-10-13T04:46:20.925Z,4.62
2022-10-13T04:48:56.302Z,4.60
2022-10-13T04:51:36.005Z,4.60
2022-10-13T04:54:10.342Z,4.60
2022-10-13T04:56:45.063Z,4.70
2022-10-13T04:59:19.146Z,4.70
2022-10-13T05:01:53.076Z,4.70
2022-10-13T05:04:26.950Z,4.70
2022-10-13T05:09:55.161Z,4.62
2022-10-13T05:12:29.031Z,4.70
2022-10-13T05:15:03.798Z,4.70
2022-10-13T05:17:37.498Z,4.76
2022-10-13T05:20:17.708Z,4.80
2022-10-13T05:22:51.479Z,4.80
2022-10-13T05:25:27.428Z,4.80
2022-10-13T05:28:06.911Z,4.80
2022-10-13T05:30:41.298Z,4.90
2022-10-13T05:33:16.081Z,4.90
2022-10-13T05:36:15.247Z,4.90
2022-10-13T05:38:53.471Z,4.92
2022-10-13T05:41:30.151Z,4.96
2022-10-13T05:44:08.507Z,5.00
2022-10-13T05:46:46.895Z,5.00
2022-10-13T05:49:20.765Z,5.10
2022-10-13T05:51:59.677Z,5.10
2022-10-13T05:54:39.002Z,5.16
2022-10-13T05:57:19.373Z,5.20
2022-10-13T05:59:59.005Z,5.20
2022-10-13T06:02:40.962Z,5.30
2022-10-13T06:05:20.931Z,5.40
2022-10-13T06:07:57.260Z,5.50
2022-10-13T06:10:32.066Z,5.50
2022-10-13T06:13:05.678Z,5.60
2022-10-13T06:15:40.168Z,5.70
2022-10-13T06:18:14.565Z,5.80
2022-10-13T06:20:48.761Z,5.90
2022-10-13T06:23:22.760Z,5.96
2022-10-13T06:25:57.615Z,6.00
2022-10-13T06:28:31.827Z,6.10
2022-10-13T06:31:08.999Z,6.20
2022-10-13T06:33:43.149Z,6.30
2022-10-13T06:36:16.845Z,6.40
2022-10-13T06:38:50.752Z,6.40
2022-10-13T06:41:26.006Z,6.50
2022-10-13T06:44:00.187Z,6.58
2022-10-13T06:46:35.259Z,6.70
2022-10-13T06:49:11.331Z,6.74
2022-10-13T06:51:45.163Z,6.80
2022-10-13T06:54:19.561Z,6.90
2022-10-13T06:56:53.746Z,7.00
2022-10-13T06:59:27.915Z,7.10
2022-10-13T07:02:02.107Z,7.22
2022-10-13T07:04:35.973Z,7.38
2022-10-13T07:07:10.400Z,7.50
2022-10-13T07:09:44.198Z,7.60
2022-10-13T07:12:19.423Z,7.70
2022-10-13T07:14:55.076Z,7.88
2022-10-13T07:17:36.422Z,8.00
2022-10-13T07:20:13.793Z,8.10
2022-10-13T07:22:47.658Z,8.20
2022-10-13T07:25:23.866Z,8.30
2022-10-13T07:27:59.247Z,8.40
2022-10-13T07:30:33.295Z,8.50
2022-10-13T07:33:07.458Z,8.60
2022-10-13T07:35:44.077Z,8.72
2022-10-13T07:38:19.040Z,8.90
2022-10-13T07:40:54.984Z,9.00
2022-10-13T07:43:37.103Z,9.10
2022-10-13T07:46:13.670Z,9.20
2022-10-13T07:48:47.859Z,9.30
2022-10-13T07:51:22.230Z,9.42
2022-10-13T07:53:56.110Z,9.60
2022-10-13T07:56:30.032Z,9.70
2022-10-13T07:59:05.424Z,9.80
2022-10-13T08:01:42.563Z,9.90
2022-10-13T08:04:17.046Z,10.10
2022-10-13T08:06:51.460Z,10.20
2022-10-13T08:09:25.480Z,10.30
2022-10-13T08:12:00.928Z,10.50
2022-10-13T08:14:36.145Z,10.60
2022-10-13T08:17:10.246Z,10.80
2022-10-13T08:19:44.029Z,11.00
2022-10-13T08:22:19.374Z,11.14
2022-10-13T08:24:53.245Z,11.30
2022-10-13T08:27:49.523Z,11.40
2022-10-13T08:30:25.182Z,11.60
2022-10-13T08:32:59.217Z,11.90
2022-10-13T08:35:34.913Z,12.10
2022-10-13T08:38:10.397Z,12.22
2022-10-13T08:40:50.188Z,12.50
2022-10-13T08:43:27.783Z,12.70
2022-10-13T08:46:04.764Z,12.90
2022-10-13T08:48:47.182Z,13.10
2022-10-13T08:51:23.154Z,13.24
2022-10-13T08:53:57.216Z,13.60
2022-10-13T08:56:36.041Z,13.86
2022-10-13T08:59:16.967Z,14.04
2022-10-13T09:01:54.315Z,14.38
2022-10-13T09:04:36.497Z,14.70
2022-10-13T09:07:20.565Z,14.80
2022-10-13T09:09:58.004Z,14.80
2022-10-13T09:12:33.981Z,15.18
2022-10-13T09:15:12.863Z,15.50
2022-10-13T09:17:46.930Z,15.60
2022-10-13T09:20:27.703Z,15.60
2022-10-13T09:23:19.094Z,15.70
2022-10-13T09:25:56.176Z,16.00
2022-10-13T09:28:32.886Z,16.10
2022-10-13T09:31:18.568Z,16.20
2022-10-13T09:34:03.418Z,16.48
2022-10-13T09:36:38.775Z,16.60
2022-10-13T09:39:18.228Z,16.56
2022-10-13T09:41:52.946Z,16.76
2022-10-13T09:44:34.774Z,17.00
2022-10-13T09:47:16.928Z,17.38
2022-10-13T09:50:06.602Z,17.50
2022-10-13T09:52:42.678Z,17.60
2022-10-13T09:55:34.833Z,17.80
2022-10-13T09:58:20.130Z,18.26
2022-10-13T10:00:58.138Z,18.54
2022-10-13T10:03:37.067Z,18.80
2022-10-13T10:06:16.577Z,18.80
2022-10-13T10:09:04.107Z,19.12
2022-10-13T10:11:44.648Z,19.60
2022-10-13T10:14:27.421Z,19.70
2022-10-13T10:17:16.387Z,19.88
2022-10-13T10:20:01.048Z,20.10
2022-10-13T10:22:47.893Z,20.26
2022-10-13T10:25:39.317Z,20.52
2022-10-13T10:28:40.861Z,20.82
2022-10-13T10:31:33.409Z,21.28
2022-10-13T10:34:29.144Z,21.20
2022-10-13T10:37:22.813Z,21.20
2022-10-13T10:40:16.808Z,21.50
2022-10-13T10:46:27.121Z,21.48
2022-10-13T10:49:04.198Z,21.50
2022-10-13T10:51:38.508Z,21.90
2022-10-13T10:54:32.046Z,22.20
2022-10-13T10:57:12.535Z,22.80
2022-10-13T10:59:57.134Z,22.90
2022-10-13T11:02:56.244Z,22.80
2022-10-13T11:06:03.896Z,22.86
2022-10-13T11:08:46.183Z,23.20
2022-10-13T11:11:39.167Z,23.00
2022-10-13T11:14:42.958Z,22.70
2022-10-13T11:17:27.207Z,22.68
2022-10-13T11:19:59.077Z,22.70
2022-10-13T11:22:30.402Z,23.24
2022-10-13T11:25:39.487Z,23.30
2022-10-13T11:28:48.640Z,23.32
2022-10-13T11:31:46.743Z,23.20
2022-10-13T11:34:32.237Z,23.16
2022-10-13T11:37:17.231Z,23.00
2022-10-13T11:40:16.846Z,23.00
2022-10-13T11:43:25.567Z,23.20
2022-10-13T11:46:26.596Z,23.10
2022-10-13T11:49:34.018Z,23.74
2022-10-13T11:52:26.813Z,24.40
2022-10-13T11:55:06.644Z,24.50
2022-10-13T11:57:36.445Z,24.30
2022-10-13T12:00:16.215Z,24.10
2022-10-13T12:02:53.986Z,24.28
2022-10-13T12:05:27.997Z,24.30
2022-10-13T12:08:04.606Z,24.56
2022-10-13T12:10:37.507Z,24.60
2022-10-13T12:13:21.568Z,24.80
2022-10-13T12:16:00.516Z,25.22
2022-10-13T12:18:33.762Z,25.30
2022-10-13T12:21:13.776Z,25.70
2022-10-13T12:23:44.259Z,25.90
2022-10-13T12:26:19.530Z,26.08
2022-10-13T12:28:55.075Z,26.06
2022-10-13T12:31:29.920Z,26.16
2022-10-13T12:34:03.510Z,26.22
2022-10-13T12:36:36.025Z,26.00
2022-10-13T12:39:11.860Z,25.90
2022-10-13T12:41:47.047Z,26.48
2022-10-13T12:44:21.649Z,26.34
2022-10-13T12:46:55.493Z,26.40
2022-10-13T12:49:28.947Z,26.66
2022-10-13T12:52:10.677Z,26.80
2022-10-13T12:54:48.348Z,26.54
2022-10-13T12:57:34.657Z,26.42
2022-10-13T13:00:19.426Z,27.18
2022-10-13T13:02:53.831Z,27.66
2022-10-13T13:05:36.957Z,28.24
2022-10-13T13:08:23.867Z,27.82
2022-10-13T13:10:59.506Z,27.12
2022-10-13T13:13:34.828Z,27.00
2022-10-13T13:16:21.509Z,27.34
2022-10-13T13:18:52.420Z,27.90
2022-10-13T13:21:22.380Z,28.38
2022-10-13T13:23:53.991Z,28.90
2022-10-13T13:26:25.197Z,29.10
2022-10-13T13:28:56.387Z,29.40
2022-10-13T13:31:30.105Z,29.42
2022-10-13T13:34:00.317Z,29.30
2022-10-13T13:36:32.011Z,29.26
2022-10-13T13:39:02.343Z,29.00
2022-10-13T13:41:32.192Z,28.70
2022-10-13T13:44:03.030Z,28.80
2022-10-13T13:46:32.864Z,28.60
2022-10-13T13:49:03.405Z,28.50
2022-10-13T13:51:33.594Z,28.36
2022-10-13T13:54:03.942Z,28.54
2022-10-13T13:56:33.724Z,28.98
2022-10-13T13:59:03.895Z,29.40
2022-10-13T14:01:33.943Z,29.58
2022-10-13T14:04:04.081Z,29.70
2022-10-13T14:06:34.105Z,29.58
2022-10-13T14:09:05.883Z,29.10
2022-10-13T14:11:35.500Z,29.20
2022-10-13T14:14:05.497Z,29.22
2022-10-13T14:16:35.421Z,29.46
2022-10-13T14:19:09.610Z,29.70
2022-10-13T14:21:39.491Z,29.90
2022-10-13T14:24:13.368Z,29.90
2022-10-13T14:26:43.146Z,29.86
2022-10-13T14:29:13.322Z,29.80
2022-10-13T14:31:44.312Z,29.68
2022-10-13T14:34:14.081Z,29.40
2022-10-13T14:36:43.637Z,29.46
2022-10-13T14:39:13.558Z,29.20
2022-10-13T14:41:43.311Z,29.10
2022-10-13T14:44:15.236Z,29.10
2022-10-13T14:46:48.029Z,29.04
2022-10-13T14:49:17.704Z,29.20
2022-10-13T14:51:51.196Z,29.22
2022-10-13T14:54:20.922Z,29.10
2022-10-13T14:56:52.105Z,29.10
2022-10-13T14:59:22.495Z,28.86
2022-10-13T15:01:52.521Z,28.60
2022-10-13T15:04:22.624Z,28.20
2022-10-13T15:06:52.489Z,27.62
2022-10-13T15:09:29.050Z,27.30
2022-10-13T15:12:10.187Z,26.70
2022-10-13T15:14:40.153Z,26.22
2022-10-13T15:25:15.948Z,24.18
2022-10-13T15:27:49.871Z,23.94
2022-10-13T15:30:23.779Z,23.32
2022-10-13T15:32:58.778Z,22.64
2022-10-13T15:35:35.127Z,21.88
2022-10-13T15:38:09.347Z,21.12
2022-10-13T15:40:45.944Z,20.40
2022-10-13T15:43:20.635Z,19.74
2022-10-13T15:46:03.260Z,19.16
2022-10-13T15:48:38.022Z,18.60
2022-10-13T15:51:20.472Z,18.12
2022-10-13T15:53:55.302Z,17.70
2022-10-13T15:56:29.153Z,17.24
2022-10-13T15:59:03.227Z,16.84
2022-10-13T16:01:37.725Z,16.46
2022-10-13T16:04:11.944Z,16.10
2022-10-13T16:06:47.093Z,15.84
2022-10-13T16:09:21.287Z,15.50
2022-10-13T16:11:56.921Z,15.30
2022-10-13T16:14:30.731Z,15.10
2022-10-13T16:17:05.666Z,14.90
2022-10-13T16:19:39.494Z,14.70
2022-10-13T16:22:13.814Z,14.54
2022-10-13T16:24:47.823Z,14.40
2022-10-13T16:27:22.092Z,14.30
2022-10-13T16:29:55.969Z,14.10
2022-10-13T16:32:30.841Z,14.00
2022-10-13T16:35:06.201Z,13.92
2022-10-13T16:37:40.258Z,13.90
2022-10-13T16:40:15.630Z,13.80
2022-10-13T16:42:49.683Z,13.78
2022-10-13T16:45:41.338Z,13.70
2022-10-13T16:48:17.680Z,13.60
2022-10-13T16:50:52.186Z,13.60
2022-10-13T16:53:29.421Z,13.50
2022-10-13T16:56:04.257Z,13.44
2022-10-13T16:58:43.589Z,13.40
2022-10-13T17:01:18.016Z,13.30
2022-10-13T17:03:52.679Z,13.22
2022-10-13T17:06:30.147Z,13.10
2022-10-13T17:09:05.679Z,13.00
2022-10-13T17:11:40.222Z,12.90
2022-10-13T17:14:14.833Z,12.90
2022-10-13T17:16:49.075Z,12.80
2022-10-13T17:19:23.157Z,12.70
2022-10-13T17:21:57.374Z,12.60
2022-10-13T17:24:32.267Z,12.50
2022-10-13T17:27:06.512Z,12.40
2022-10-13T17:29:40.975Z,12.40
2022-10-13T17:32:15.096Z,12.40
2022-10-13T17:34:49.821Z,12.40
2022-10-13T17:37:23.608Z,12.40
2022-10-13T17:39:57.359Z,12.40
2022-10-13T17:42:34.333Z,12.38
2022-10-13T17:45:12.125Z,12.30
2022-10-13T17:47:52.445Z,12.30
2022-10-13T17:50:30.040Z,12.20
2022-10-13T17:53:04.552Z,12.20
2022-10-13T17:55:38.736Z,12.20
2022-10-13T17:58:14.610Z,12.12
2022-10-13T18:01:12.018Z,12.10
2022-10-13T18:03:46.452Z,12.10
2022-10-13T18:06:22.553Z,12.10
2022-10-13T18:08:57.600Z,12.10
2022-10-13T18:11:32.343Z,12.02
2022-10-13T18:14:10.662Z,12.00
2022-10-13T18:16:49.074Z,12.00
2022-10-13T18:19:23.902Z,11.90
2022-10-13T18:21:58.787Z,11.90
2022-10-13T18:24:34.198Z,11.90
2022-10-13T18:27:10.665Z,11.80
2022-10-13T18:29:46.187Z,11.80
2022-10-13T18:32:20.339Z,11.70
2022-10-13T18:34:57.705Z,11.74
2022-10-13T18:37:31.770Z,11.80
2022-10-13T18:40:10.806Z,11.80
2022-10-13T18:42:51.662Z,11.80
2022-10-13T18:45:29.411Z,11.72
2022-10-13T18:48:04.540Z,11.70
2022-10-13T18:50:42.982Z,11.60
2022-10-13T18:53:18.076Z,11.60
2022-10-13T18:55:51.856Z,11.50
2022-10-13T18:58:27.074Z,11.40
2022-10-13T19:01:06.782Z,11.40
2022-10-13T19:03:43.105Z,11.30
2022-10-13T19:06:20.383Z,11.26
2022-10-13T19:09:06.647Z,11.20
2022-10-13T19:11:44.624Z,11.20
2022-10-13T19:14:22.337Z,11.26
2022-10-13T19:17:01.640Z,11.30
2022-10-13T19:19:39.281Z,11.30
2022-10-13T19:22:15.386Z,11.28
2022-10-13T19:24:49.512Z,11.20
2022-10-13T19:27:24.414Z,11.22
2022-10-13T19:29:59.284Z,11.24
2022-10-13T19:32:33.938Z,11.24
2022-10-13T19:35:08.317Z,11.20
2022-10-13T19:37:43.259Z,11.16
2022-10-13T19:40:17.425Z,11.10
2022-10-13T19:42:53.687Z,11.10
2022-10-13T19:45:27.688Z,11.00
2022-10-13T19:48:03.083Z,11.00
2022-10-13T19:50:42.737Z,10.90
2022-10-13T19:53:21.489Z,10.80
2022-10-13T19:55:55.726Z,10.80
2022-10-13T19:58:30.039Z,10.70
2022-10-13T20:01:09.883Z,10.70
2022-10-13T20:03:44.239Z,10.62
2022-10-13T20:06:18.764Z,10.60
2022-10-13T20:08:53.460Z,10.50
2022-10-13T20:11:27.457Z,10.46
2022-10-13T20:14:04.231Z,10.40
2022-10-13T20:16:40.505Z,10.40
2022-10-13T20:19:19.605Z,10.40
2022-10-13T20:21:54.478Z,10.40
2022-10-13T20:24:29.142Z,10.30
2022-10-13T20:27:03.274Z,10.34
2022-10-13T20:29:38.742Z,10.38
2022-10-13T20:32:15.356Z,10.40
2022-10-13T20:34:49.535Z,10.40
2022-10-13T20:37:23.632Z,10.40
2022-10-13T20:39:58.400Z,10.40
2022-10-13T20:42:33.001Z,10.38
2022-10-13T20:45:08.469Z,10.40
2022-10-13T20:47:43.364Z,10.40
2022-10-13T20:50:17.341Z,10.40
2022-10-13T20:52:51.176Z,10.30
2022-10-13T20:55:24.997Z,10.30
2022-10-13T20:57:58.923Z,10.30
2022-10-13T21:00:32.855Z,10.30
2022-10-13T21:03:07.133Z,10.30
2022-10-13T21:05:41.236Z,10.30
2022-10-13T21:08:15.524Z,10.30
2022-10-13T21:10:52.608Z,10.30
2022-10-13T21:13:29.445Z,10.30
2022-10-13T21:16:12.401Z,10.30
2022-10-13T21:18:49.834Z,10.28
2022-10-13T21:21:28.748Z,10.20
2022-10-13T21:24:05.404Z,10.20
2022-10-13T21:26:41.713Z,10.20
2022-10-13T21:29:21.043Z,10.18
2022-10-13T21:31:54.767Z,10.12
2022-10-13T21:34:28.890Z,10.10
2022-10-13T21:37:03.044Z,10.10
2022-10-13T21:39:37.343Z,10.00
2022-10-13T21:42:11.627Z,10.00
2022-10-13T21:44:45.883Z,9.90
2022-10-13T21:47:20.283Z,9.90
2022-10-13T21:49:55.991Z,9.84
2022-10-13T21:52:30.815Z,9.80
2022-10-13T21:55:05.188Z,9.78
2022-10-13T21:57:39.035Z,9.70
2022-10-13T22:00:17.331Z,9.66
2022-10-13T22:02:51.735Z,9.60
2022-10-13T22:05:27.357Z,9.60
2022-10-13T22:08:04.076Z,9.60
2022-10-13T22:10:38.993Z,9.60
2022-10-13T22:13:12.916Z,9.50
2022-10-13T22:15:46.573Z,9.50
2022-10-13T22:18:23.678Z,9.44
2022-10-13T22:21:00.675Z,9.40
2022-10-13T22:23:35.047Z,9.40
2022-10-13T22:26:08.983Z,9.30
2022-10-13T22:28:44.162Z,9.30
2022-10-13T22:31:18.270Z,9.30
2022-10-13T22:33:53.824Z,9.30
2022-10-13T22:36:28.972Z,9.30
2022-10-13T22:39:06.017Z,9.30
2022-10-13T22:41:40.065Z,9.30
2022-10-13T22:44:14.912Z,9.20
2022-10-13T22:46:48.989Z,9.20
2022-10-13T22:49:22.857Z,9.20
2022-10-13T22:51:57.200Z,9.20
2022-10-13T22:54:31.103Z,9.20
2022-10-13T22:57:04.950Z,9.20
2022-10-13T22:59:38.935Z,9.10
2022-10-13T23:02:12.653Z,9.10
2022-10-13T23:04:49.639Z,9.10
2022-10-13T23:07:23.733Z,9.10
2022-10-13T23:09:58.960Z,9.10
2022-10-13T23:12:32.795Z,9.10
2022-10-13T23:15:08.487Z,9.10
2022-10-13T23:17:42.354Z,9.10
2022-10-13T23:20:16.459Z,9.10
2022-10-13T23:22:50.338Z,9.16
2022-10-13T23:25:24.011Z,9.20
2022-10-13T23:27:57.565Z,9.20
2022-10-13T23:30:31.496Z,9.20
2022-10-13T23:33:05.052Z,9.20
2022-10-13T23:35:40.190Z,9.20
2022-10-13T23:38:14.701Z,9.20
2022-10-13T23:40:48.443Z,9.26
2022-10-13T23:43:23.127Z,9.30
2022-10-13T23:45:56.839Z,9.30
2022-10-13T23:48:31.088Z,9.30
2022-10-13T23:51:12.036Z,9.30
2022-10-13T23:53:46.108Z,9.32
2022-10-13T23:56:22.008Z,9.40
2022-10-13T23:58:57.165Z,9.38
